Time;durP1;ratioP1;P1;durP2;ratioP2;P2;SDS_P1;SDS_P2;PMS_P1;PMS_P2;Temp;Humidity;BMP_temperature;BMP_pressure;BME280_temperature;BME280_humidity;BME280_pressure;Samples;Min_cycle;Max_cycle;Signal;HPM_P1;HPM_P2
2021/07/21 00:01:44;;;;;;;9.97;8.90;;;17.80;99.90;;;;;;4955880;28;20197;-67
2021/07/21 00:04:10;;;;;;;9.80;8.90;;;17.80;99.90;;;;;;4972949;28;20590;-66
2021/07/21 00:06:35;;;;;;;10.70;9.10;;;17.80;99.90;;;;;;4972935;28;20583;-66
2021/07/21 00:09:01;;;;;;;10.93;8.10;;;17.80;99.90;;;;;;4972800;28;20182;-66
2021/07/21 00:14:19;;;;;;;10.23;8.30;;;17.70;99.90;;;;;;4973058;28;20178;-66
2021/07/21 00:16:51;;;;;;;9.30;8.37;;;17.80;99.90;;;;;;4973097;28;20949;-66
2021/07/21 00:22:01;;;;;;;9.93;7.90;;;17.80;99.90;;;;;;4972803;28;20825;-66
2021/07/21 00:24:26;;;;;;;9.80;8.83;;;17.80;99.90;;;;;;4972907;28;20415;-66
2021/07/21 00:26:52;;;;;;;8.87;7.97;;;17.80;99.90;;;;;;4972761;28;20692;-66
2021/07/21 00:29:17;;;;;;;11.73;9.33;;;17.70;99.90;;;;;;4972620;28;20173;-66
2021/07/21 00:31:43;;;;;;;11.23;9.37;;;17.70;99.90;;;;;;4972787;28;20176;-66
2021/07/21 00:34:10;;;;;;;10.43;9.33;;;17.70;99.90;;;;;;4972659;28;20215;-66
2021/07/21 00:36:36;;;;;;;10.67;9.50;;;17.60;99.90;;;;;;4972604;28;20188;-66
2021/07/21 00:39:01;;;;;;;10.40;9.40;;;17.50;99.90;;;;;;4972400;28;20427;-66
2021/07/21 00:41:27;;;;;;;9.20;8.07;;;17.40;99.90;;;;;;4972806;28;20532;-66
2021/07/21 00:43:52;;;;;;;13.27;8.90;;;17.30;99.90;;;;;;4972610;28;20173;-66
2021/07/21 00:46:18;;;;;;;10.70;8.57;;;17.30;99.90;;;;;;4972548;28;20236;-66
2021/07/21 00:48:43;;;;;;;11.50;8.57;;;17.20;99.90;;;;;;4972314;28;20223;-66
2021/07/21 00:51:09;;;;;;;10.40;9.30;;;17.10;99.90;;;;;;4972503;28;20708;-66
2021/07/21 00:53:35;;;;;;;9.73;8.77;;;17.00;99.90;;;;;;4972634;28;20180;-66
2021/07/21 00:56:00;;;;;;;10.43;8.70;;;16.90;99.90;;;;;;4972464;28;20255;-66
2021/07/21 00:58:26;;;;;;;11.40;10.23;;;16.90;99.90;;;;;;4972280;28;20176;-66
2021/07/21 01:00:55;;;;;;;9.87;8.97;;;16.80;99.90;;;;;;4972515;28;20523;-66
2021/07/21 01:03:21;;;;;;;9.03;7.80;;;16.90;99.90;;;;;;4957441;28;20204;-66
2021/07/21 01:05:46;;;;;;;11.30;10.30;;;16.90;99.90;;;;;;4953047;29;21008;-66
2021/07/21 01:08:13;;;;;;;10.07;9.10;;;16.90;99.90;;;;;;4953726;28;20197;-65
2021/07/21 01:10:43;;;;;;;9.70;8.73;;;16.80;99.90;;;;;;4956527;28;20173;-66
2021/07/21 01:13:15;;;;;;;9.90;8.93;;;16.70;99.90;;;;;;4956720;28;20483;-66
2021/07/21 01:15:56;;;;;;;10.90;9.60;;;16.60;99.90;;;;;;4956594;28;20420;-66
2021/07/21 01:18:27;;;;;;;10.47;9.47;;;16.60;99.90;;;;;;4956221;29;20850;-66
2021/07/21 01:21:13;;;;;;;10.20;9.10;;;16.50;99.90;;;;;;4956540;28;20532;-66
2021/07/21 01:23:48;;;;;;;10.77;9.70;;;16.40;99.90;;;;;;4956433;28;20424;-66
2021/07/21 01:26:33;;;;;;;13.97;8.60;;;16.40;99.90;;;;;;4956228;29;20901;-66
2021/07/21 01:29:01;;;;;;;11.63;8.63;;;16.40;99.90;;;;;;4956040;28;20459;-66
2021/07/21 01:31:33;;;;;;;11.50;10.30;;;16.40;99.90;;;;;;4956232;28;20435;-66
2021/07/21 01:34:00;;;;;;;10.57;9.53;;;16.40;99.90;;;;;;4966450;28;20899;-66
2021/07/21 01:36:31;;;;;;;14.27;9.83;;;16.30;99.90;;;;;;4975485;28;20816;-66
2021/07/21 01:39:03;;;;;;;11.10;9.87;;;16.20;99.90;;;;;;4975045;28;20428;-66
2021/07/21 01:41:33;;;;;;;11.20;9.57;;;16.20;99.90;;;;;;4975454;28;20964;-66
2021/07/21 01:44:03;;;;;;;11.50;9.70;;;16.20;99.90;;;;;;4974666;28;20925;-66
2021/07/21 01:46:30;;;;;;;11.27;9.77;;;16.20;99.90;;;;;;4975005;28;20463;-66
2021/07/21 01:48:58;;;;;;;9.90;8.93;;;16.20;99.90;;;;;;4974852;28;20487;-66
2021/07/21 01:51:24;;;;;;;13.03;10.30;;;16.10;99.90;;;;;;4975572;28;20420;-66
2021/07/21 01:53:52;;;;;;;10.60;9.37;;;16.10;99.90;;;;;;4975094;28;20420;-66
2021/07/21 01:56:20;;;;;;;10.77;9.47;;;16.00;99.90;;;;;;4975013;28;20518;-66
2021/07/21 01:58:46;;;;;;;10.43;9.10;;;16.00;99.90;;;;;;4974729;28;20427;-66
2021/07/21 02:01:12;;;;;;;10.67;9.73;;;16.00;99.90;;;;;;4974956;28;20517;-66
2021/07/21 02:03:41;;;;;;;11.17;10.07;;;15.90;99.90;;;;;;4957553;28;20428;-66
2021/07/21 02:06:08;;;;;;;12.83;9.37;;;15.90;99.90;;;;;;4955495;28;20488;-66
2021/07/21 02:08:34;;;;;;;11.67;10.20;;;15.90;99.90;;;;;;4955675;28;20416;-66
2021/07/21 02:11:02;;;;;;;12.70;9.60;;;15.90;99.90;;;;;;4955520;28;20416;-65
2021/07/21 02:13:29;;;;;;;11.00;9.67;;;16.00;99.90;;;;;;4955442;28;20420;-65
2021/07/21 02:15:56;;;;;;;9.97;8.97;;;16.00;99.90;;;;;;4955375;28;20428;-65
2021/07/21 02:18:23;;;;;;;9.97;8.90;;;16.00;99.90;;;;;;4955221;28;20424;-66
2021/07/21 02:20:51;;;;;;;11.63;9.03;;;15.90;99.90;;;;;;4955191;28;20427;-66
2021/07/21 02:23:18;;;;;;;12.47;10.00;;;15.90;99.90;;;;;;4955355;28;20553;-66
2021/07/21 02:25:45;;;;;;;11.00;8.73;;;15.80;99.90;;;;;;4955190;28;20552;-66
2021/07/21 02:28:11;;;;;;;14.00;9.57;;;15.80;99.90;;;;;;4955074;28;20444;-66
2021/07/21 02:30:36;;;;;;;12.50;9.70;;;15.70;99.90;;;;;;4954846;29;20429;-66
2021/07/21 02:33:08;;;;;;;10.97;9.90;;;15.60;99.90;;;;;;4958103;28;20259;-66
2021/07/21 02:35:34;;;;;;;12.33;9.03;;;15.60;99.90;;;;;;4974447;28;20185;-66
2021/07/21 02:38:00;;;;;;;12.70;9.33;;;15.50;99.90;;;;;;4974311;28;20534;-66
2021/07/21 02:40:26;;;;;;;13.70;9.27;;;15.50;99.90;;;;;;4973986;28;20514;-66
2021/07/21 02:42:52;;;;;;;11.17;9.60;;;15.50;99.90;;;;;;4974161;28;20216;-66
2021/07/21 02:45:18;;;;;;;10.77;9.63;;;15.50;99.90;;;;;;4974114;28;20211;-66
2021/07/21 02:47:44;;;;;;;12.47;10.67;;;15.50;99.90;;;;;;4974083;28;20453;-66
2021/07/21 02:50:12;;;;;;;10.90;9.57;;;15.50;99.90;;;;;;4974120;28;20638;-66
2021/07/21 02:52:55;;;;;;;11.73;10.53;;;15.50;99.90;;;;;;4974178;28;20429;-66
2021/07/21 02:55:36;;;;;;;10.80;9.70;;;15.40;99.90;;;;;;4972662;28;20825;-67
2021/07/21 02:58:27;;;;;;;11.80;10.50;;;15.40;99.90;;;;;;4973828;28;20463;-66
2021/07/21 03:00:56;;;;;;;16.93;10.20;;;15.40;99.90;;;;;;4973812;28;20451;-66
2021/07/21 03:03:22;;;;;;;11.03;9.90;;;15.40;99.90;;;;;;4958598;28;20834;-66
2021/07/21 03:05:49;;;;;;;11.97;9.27;;;15.30;99.90;;;;;;4954399;29;20953;-66
2021/07/21 03:08:17;;;;;;;10.53;9.40;;;15.40;99.90;;;;;;4954332;28;20520;-66
2021/07/21 03:10:44;;;;;;;12.73;9.40;;;15.40;99.90;;;;;;4954277;28;20439;-67
2021/07/21 03:13:16;;;;;;;12.73;11.43;;;15.30;99.90;;;;;;4954319;28;20420;-66
2021/07/21 03:15:45;;;;;;;12.47;9.87;;;15.30;99.90;;;;;;4954884;28;20780;-66
2021/07/21 03:18:13;;;;;;;12.03;10.70;;;15.40;99.90;;;;;;4954123;28;20451;-66
2021/07/21 03:20:40;;;;;;;13.10;10.67;;;15.30;99.90;;;;;;4954127;28;20519;-66
2021/07/21 03:23:07;;;;;;;10.53;9.37;;;15.20;99.90;;;;;;4954305;28;20424;-66
2021/07/21 03:25:33;;;;;;;11.57;10.37;;;15.20;99.90;;;;;;4954232;28;20453;-67
2021/07/21 03:28:01;;;;;;;11.30;10.10;;;15.20;99.90;;;;;;4954103;28;20445;-66
2021/07/21 03:30:28;;;;;;;13.03;10.30;;;15.20;99.90;;;;;;4953668;28;20941;-67
2021/07/21 03:32:55;;;;;;;11.50;9.40;;;15.30;99.90;;;;;;4954098;28;20440;-66
2021/07/21 03:35:25;;;;;;;10.60;9.00;;;15.30;99.90;;;;;;4973410;28;20563;-67
2021/07/21 03:37:51;;;;;;;13.10;10.13;;;15.20;99.90;;;;;;4973254;28;20439;-66
2021/07/21 03:40:19;;;;;;;11.60;10.50;;;15.10;99.90;;;;;;4973085;28;20939;-66
2021/07/21 03:42:45;;;;;;;10.47;9.47;;;15.00;99.90;;;;;;4973274;28;20428;-66
2021/07/21 03:45:13;;;;;;;10.33;9.33;;;15.00;99.90;;;;;;4973105;28;20459;-66
2021/07/21 03:47:43;;;;;;;10.83;9.80;;;14.90;99.90;;;;;;4973114;28;20439;-67
2021/07/21 03:50:10;;;;;;;11.00;9.60;;;14.90;99.90;;;;;;4971703;28;20419;-66
2021/07/21 03:52:38;;;;;;;12.80;10.10;;;14.90;99.90;;;;;;4973150;28;20478;-66
2021/07/21 03:55:05;;;;;;;11.17;9.90;;;14.90;99.90;;;;;;4973209;28;20462;-66
2021/07/21 03:57:32;;;;;;;14.33;10.50;;;14.90;99.90;;;;;;4990261;23;20494;-67
2021/07/21 03:59:57;;;;;;;12.17;9.97;;;14.90;99.90;;;;;;4983894;28;20921;-68
2021/07/21 04:02:24;;;;;;;11.50;10.30;;;14.90;99.90;;;;;;4985048;28;20439;-69
2021/07/21 04:04:50;;;;;;;11.30;10.10;;;14.90;99.90;;;;;;4973076;28;20200;-67
2021/07/21 04:07:18;;;;;;;11.43;10.33;;;14.90;99.90;;;;;;4972989;28;20494;-68
2021/07/21 04:09:47;;;;;;;12.30;10.60;;;14.90;99.90;;;;;;4972750;28;20411;-69
2021/07/21 04:12:15;;;;;;;13.10;10.70;;;15.00;99.90;;;;;;4972910;28;20936;-67
2021/07/21 04:14:43;;;;;;;10.87;9.67;;;15.00;99.90;;;;;;4973069;28;20423;-68
2021/07/21 04:17:09;;;;;;;12.17;10.20;;;15.10;99.90;;;;;;4972846;28;20721;-69
2021/07/21 04:19:35;;;;;;;10.53;9.20;;;15.00;99.90;;;;;;4972631;28;20423;-69
2021/07/21 04:22:02;;;;;;;11.70;10.13;;;15.10;99.90;;;;;;4973017;28;20491;-70
2021/07/21 04:24:28;;;;;;;11.73;10.43;;;15.20;99.90;;;;;;4977085;28;21064;-67
2021/07/21 04:26:56;;;;;;;10.97;9.60;;;15.10;99.90;;;;;;4992264;28;20430;-68
2021/07/21 04:29:26;;;;;;;13.03;11.63;;;15.10;99.90;;;;;;4992022;28;20426;-68
2021/07/21 04:31:52;;;;;;;12.47;11.13;;;15.10;99.90;;;;;;4992317;28;20425;-67
2021/07/21 04:34:19;;;;;;;12.60;10.33;;;15.20;99.90;;;;;;4979038;28;20447;-67
2021/07/21 04:36:45;;;;;;;12.87;11.57;;;15.30;99.90;;;;;;4972762;28;20415;-68
2021/07/21 04:39:18;;;;;;;12.03;10.10;;;15.30;99.90;;;;;;4972391;28;20436;-67
2021/07/21 04:41:45;;;;;;;11.13;9.90;;;15.40;99.90;;;;;;4972747;28;20423;-68
2021/07/21 04:44:12;;;;;;;13.17;10.50;;;15.50;99.90;;;;;;4975210;28;20420;-68
2021/07/21 04:46:38;;;;;;;11.90;10.43;;;15.60;99.90;;;;;;4976636;28;20550;-68
2021/07/21 04:49:04;;;;;;;12.60;11.30;;;15.70;99.90;;;;;;4975958;28;20505;-68
2021/07/21 04:51:31;;;;;;;12.60;10.53;;;15.80;99.90;;;;;;4976255;28;20463;-68
2021/07/21 04:54:01;;;;;;;12.07;10.40;;;15.90;99.90;;;;;;4976326;28;20420;-68
2021/07/21 04:56:27;;;;;;;11.73;10.40;;;16.00;99.90;;;;;;4977330;28;20954;-67
2021/07/21 04:58:53;;;;;;;14.33;11.50;;;16.10;99.90;;;;;;4987424;28;20509;-68
2021/07/21 05:01:19;;;;;;;16.10;11.30;;;16.20;99.90;;;;;;4989791;28;20191;-69
2021/07/21 05:03:45;;;;;;;12.47;10.00;;;16.50;99.90;;;;;;4984037;28;20189;-69
2021/07/21 05:06:11;;;;;;;11.57;10.30;;;16.60;99.90;;;;;;4979502;28;20463;-67
2021/07/21 05:08:36;;;;;;;11.77;10.10;;;16.60;99.90;;;;;;4976740;28;20447;-67
2021/07/21 05:11:02;;;;;;;11.67;10.47;;;16.70;99.90;;;;;;4983276;28;20453;-67
2021/07/21 05:13:28;;;;;;;15.70;11.63;;;16.80;99.90;;;;;;4993814;28;20172;-67
2021/07/21 05:15:54;;;;;;;12.90;11.50;;;17.00;99.90;;;;;;4995132;28;20653;-68
2021/07/21 05:18:19;;;;;;;12.80;11.50;;;17.00;99.90;;;;;;4994972;28;20199;-67
2021/07/21 05:20:45;;;;;;;11.63;10.40;;;17.10;99.90;;;;;;4984751;28;20196;-68
2021/07/21 05:23:11;;;;;;;11.17;9.97;;;17.20;99.90;;;;;;4975997;28;20176;-68
2021/07/21 05:25:39;;;;;;;13.77;11.03;;;17.40;99.90;;;;;;4975833;28;20200;-68
2021/07/21 05:28:05;;;;;;;12.40;11.10;;;17.50;99.90;;;;;;4975563;28;20447;-68
2021/07/21 05:30:31;;;;;;;13.23;10.40;;;17.60;99.90;;;;;;4974080;28;20423;-67
2021/07/21 05:32:57;;;;;;;13.40;12.00;;;17.80;99.90;;;;;;4977622;28;20435;-68
2021/07/21 05:35:22;;;;;;;11.93;10.73;;;17.90;99.90;;;;;;4994839;28;20263;-68
2021/07/21 05:37:48;;;;;;;11.60;10.23;;;18.10;99.90;;;;;;4994904;28;20665;-68
2021/07/21 05:40:14;;;;;;;11.80;10.57;;;18.30;99.90;;;;;;4994634;28;20455;-68
2021/07/21 05:42:39;;;;;;;11.70;10.50;;;18.30;99.90;;;;;;4994927;28;20199;-68
2021/07/21 05:45:05;;;;;;;12.40;11.10;;;18.40;99.90;;;;;;4994689;28;20199;-69
2021/07/21 05:47:30;;;;;;;12.67;11.10;;;18.50;99.90;;;;;;4994768;28;20203;-68
2021/07/21 05:49:56;;;;;;;12.93;11.37;;;18.70;99.90;;;;;;4982918;28;20470;-68
2021/07/21 05:52:22;;;;;;;13.40;10.37;;;18.80;99.90;;;;;;4975335;28;20172;-68
2021/07/21 05:54:47;;;;;;;14.03;11.93;;;19.00;99.90;;;;;;4974815;28;20180;-68
2021/07/21 05:57:13;;;;;;;17.97;12.97;;;19.10;99.90;;;;;;4974935;28;20180;-69
2021/07/21 05:59:38;;;;;;;14.00;11.70;;;19.30;99.90;;;;;;4974955;28;20255;-68
2021/07/21 06:02:04;;;;;;;12.87;11.43;;;19.30;99.90;;;;;;4979805;28;20186;-68
2021/07/21 06:04:29;;;;;;;12.73;11.00;;;19.40;99.90;;;;;;4994318;28;20267;-69
2021/07/21 06:06:55;;;;;;;14.93;11.80;;;19.30;99.90;;;;;;4994377;28;20179;-69
2021/07/21 06:09:20;;;;;;;15.47;11.57;;;19.50;99.90;;;;;;4974876;28;20261;-68
2021/07/21 06:11:46;;;;;;;12.50;11.20;;;19.60;99.90;;;;;;4974870;28;20176;-68
2021/07/21 06:14:11;;;;;;;16.13;12.10;;;19.80;99.90;;;;;;4974980;28;20173;-68
2021/07/21 06:16:37;;;;;;;13.57;11.10;;;19.90;99.90;;;;;;4974859;28;20196;-68
2021/07/21 06:19:04;;;;;;;11.70;10.50;;;20.10;99.90;;;;;;4974297;28;20619;-69
2021/07/21 06:21:29;;;;;;;14.63;12.30;;;20.10;99.90;;;;;;4974654;28;20176;-66
2021/07/21 06:23:55;;;;;;;14.70;11.33;;;20.20;99.90;;;;;;4974594;28;20917;-67
2021/07/21 06:26:20;;;;;;;13.83;12.37;;;20.10;99.90;;;;;;4974390;28;20274;-66
2021/07/21 06:28:48;;;;;;;12.97;11.67;;;20.20;99.90;;;;;;4974308;28;20188;-66
2021/07/21 06:31:14;;;;;;;11.97;10.70;;;20.30;99.90;;;;;;4974485;28;20176;-67
2021/07/21 06:33:40;;;;;;;13.17;11.77;;;20.40;99.90;;;;;;4984981;28;20924;-67
2021/07/21 06:36:06;;;;;;;14.63;10.80;;;20.50;99.90;;;;;;4974323;28;20451;-66
2021/07/21 06:38:31;;;;;;;13.83;10.83;;;20.60;99.90;;;;;;4974024;28;20192;-67
2021/07/21 06:40:57;;;;;;;12.17;10.43;;;20.60;99.90;;;;;;4978418;28;20178;-67
2021/07/21 06:43:22;;;;;;;12.83;10.97;;;20.70;99.90;;;;;;4993673;28;20656;-67
2021/07/21 06:45:48;;;;;;;13.80;12.13;;;20.80;99.90;;;;;;4993529;28;20548;-67
2021/07/21 06:48:14;;;;;;;17.03;12.43;;;21.00;99.90;;;;;;4993263;28;20720;-66
2021/07/21 06:50:40;;;;;;;16.60;12.67;;;21.30;99.90;;;;;;4993379;28;20206;-66
2021/07/21 06:53:05;;;;;;;18.10;11.30;;;21.40;99.90;;;;;;4993513;28;20172;-67
2021/07/21 06:55:31;;;;;;;15.93;12.23;;;21.50;99.90;;;;;;4990510;28;20446;-66
2021/07/21 06:57:58;;;;;;;15.50;11.63;;;21.50;99.90;;;;;;4974277;28;20768;-67
2021/07/21 07:00:24;;;;;;;18.43;12.50;;;21.70;99.90;;;;;;4981705;28;20861;-67
2021/07/21 07:02:49;;;;;;;18.67;12.20;;;21.70;99.90;;;;;;4991128;28;20439;-66
2021/07/21 07:05:15;;;;;;;13.53;11.53;;;21.80;99.90;;;;;;4991146;28;20211;-65
2021/07/21 07:07:40;;;;;;;16.63;12.90;;;22.00;99.90;;;;;;4969340;28;20207;-66
2021/07/21 07:10:07;;;;;;;13.23;11.90;;;21.80;99.90;;;;;;4950843;28;20176;-66
2021/07/21 07:12:33;;;;;;;11.53;10.33;;;22.00;99.90;;;;;;4985803;28;20676;-66
2021/07/21 07:14:58;;;;;;;13.80;12.40;;;22.20;99.90;;;;;;4993145;28;20423;-66
2021/07/21 07:17:25;;;;;;;13.30;11.90;;;22.60;99.90;;;;;;4988511;28;20201;-65
2021/07/21 07:19:52;;;;;;;15.03;11.50;;;22.80;99.90;;;;;;4987065;28;20557;-66
2021/07/21 07:22:17;;;;;;;11.83;10.60;;;22.90;99.90;;;;;;4984490;28;20430;-67
2021/07/21 07:24:43;;;;;;;17.43;12.47;;;22.90;99.90;;;;;;4988218;28;20469;-65
2021/07/21 07:27:09;;;;;;;11.50;10.37;;;23.00;99.90;;;;;;4975602;28;20235;-66
2021/07/21 07:29:35;;;;;;;12.87;11.57;;;23.30;99.90;;;;;;4981835;28;20455;-66
2021/07/21 07:32:00;;;;;;;14.10;12.60;;;23.30;99.90;;;;;;4989633;28;20178;-66
2021/07/21 07:34:26;;;;;;;13.43;11.17;;;23.30;99.90;;;;;;4975602;28;20182;-66
2021/07/21 07:36:51;;;;;;;12.30;11.10;;;23.30;99.90;;;;;;4968343;28;20204;-66
2021/07/21 07:39:17;;;;;;;12.10;11.00;;;23.50;99.90;;;;;;4980503;28;20673;-67
2021/07/21 07:41:43;;;;;;;13.40;11.67;;;23.60;99.90;;;;;;4986466;28;20669;-67
2021/07/21 07:44:10;;;;;;;12.27;11.10;;;23.80;99.90;;;;;;4988426;28;20551;-66
2021/07/21 07:46:36;;;;;;;12.63;11.33;;;24.10;99.90;;;;;;4989144;28;20222;-67
2021/07/21 07:49:03;;;;;;;11.77;10.57;;;24.20;99.90;;;;;;4983402;28;20505;-67
2021/07/21 07:51:29;;;;;;;12.93;11.13;;;24.20;99.90;;;;;;4989248;28;20422;-67
2021/07/21 07:53:57;;;;;;;13.67;12.37;;;24.50;99.90;;;;;;4989538;28;20422;-67
2021/07/21 07:56:22;;;;;;;11.70;10.50;;;24.80;99.90;;;;;;4989755;28;21089;-66
2021/07/21 07:58:48;;;;;;;12.30;11.00;;;25.00;99.90;;;;;;4969162;28;20785;-67
2021/07/21 08:01:13;;;;;;;12.50;10.40;;;24.90;99.90;;;;;;4969760;28;20210;-66
2021/07/21 08:03:39;;;;;;;11.43;10.40;;;25.00;99.90;;;;;;4970023;28;20203;-67
2021/07/21 08:06:05;;;;;;;13.93;11.30;;;25.20;99.90;;;;;;4970000;28;20740;-67
2021/07/21 08:08:30;;;;;;;12.20;11.10;;;25.40;99.90;;;;;;4967253;28;20608;-67
2021/07/21 08:10:56;;;;;;;12.60;11.30;;;25.60;99.50;;;;;;4969812;28;20182;-67
2021/07/21 08:13:22;;;;;;;11.77;10.77;;;25.80;99.20;;;;;;4969450;28;20176;-67
2021/07/21 08:15:49;;;;;;;11.53;10.43;;;25.80;98.60;;;;;;4969842;28;20263;-66
2021/07/21 08:18:15;;;;;;;15.13;11.43;;;26.00;98.50;;;;;;4979250;28;21025;-67
2021/07/21 08:20:42;;;;;;;17.90;16.17;;;26.10;97.80;;;;;;4990538;28;20414;-67
2021/07/21 08:23:07;;;;;;;18.93;16.93;;;26.30;97.70;;;;;;4982791;28;20427;-67
2021/07/21 08:25:33;;;;;;;12.30;10.57;;;26.20;97.60;;;;;;4982949;28;20528;-67
2021/07/21 08:27:59;;;;;;;11.60;10.50;;;26.30;97.30;;;;;;4978983;28;20290;-67
2021/07/21 08:30:25;;;;;;;12.70;11.47;;;26.30;97.10;;;;;;4982623;28;20172;-68
2021/07/21 08:32:52;;;;;;;12.37;10.87;;;26.60;96.70;;;;;;4995946;28;20235;-68
2021/07/21 08:35:21;;;;;;;13.60;11.27;;;26.90;96.60;;;;;;4983064;28;20267;-66
2021/07/21 08:37:47;;;;;;;13.17;11.27;;;27.00;96.30;;;;;;4979375;28;20479;-67
2021/07/21 08:40:14;;;;;;;10.97;9.67;;;27.00;95.20;;;;;;4974879;28;20940;-66
2021/07/21 08:42:40;;;;;;;11.30;10.30;;;26.90;95.00;;;;;;4975276;28;20222;-67
2021/07/21 08:45:08;;;;;;;11.20;10.10;;;27.00;94.90;;;;;;4989984;28;20469;-66
2021/07/21 08:47:34;;;;;;;12.57;10.57;;;27.30;95.30;;;;;;4982356;28;20447;-66
2021/07/21 08:50:01;;;;;;;13.30;12.00;;;27.40;93.90;;;;;;4986609;28;20419;-67
2021/07/21 08:52:26;;;;;;;10.70;9.80;;;27.80;93.50;;;;;;4992484;28;20180;-66
2021/07/21 08:54:58;;;;;;;11.80;10.70;;;28.10;92.90;;;;;;4992366;28;20476;-67
2021/07/21 08:57:24;;;;;;;11.77;10.47;;;28.20;93.20;;;;;;4986368;28;20314;-66
2021/07/21 08:59:51;;;;;;;11.00;10.00;;;28.30;92.70;;;;;;4972766;28;20442;-66
2021/07/21 09:02:16;;;;;;;11.20;10.23;;;28.50;92.30;;;;;;4981060;28;20505;-66
2021/07/21 09:04:42;;;;;;;11.67;10.57;;;28.40;92.00;;;;;;4972658;28;20439;-67
2021/07/21 09:07:09;;;;;;;10.50;9.47;;;28.50;92.50;;;;;;4972269;28;20188;-66
2021/07/21 09:09:35;;;;;;;10.90;9.73;;;28.40;92.10;;;;;;4991982;28;20241;-66
2021/07/21 09:12:00;;;;;;;11.73;10.50;;;28.40;92.30;;;;;;4991991;28;20423;-67
2021/07/21 09:14:27;;;;;;;11.00;10.00;;;28.60;90.80;;;;;;4991720;28;20437;-66
2021/07/21 09:17:14;;;;;;;12.07;10.87;;;28.50;90.40;;;;;;4989918;28;20226;-66
2021/07/21 09:19:45;;;;;;;11.17;10.07;;;28.80;90.00;;;;;;4972167;28;20455;-67
2021/07/21 09:22:13;;;;;;;10.80;9.90;;;29.10;89.50;;;;;;4972442;28;20443;-66
2021/07/21 09:24:39;;;;;;;11.80;10.80;;;29.20;88.50;;;;;;4972371;28;20439;-66
2021/07/21 09:27:05;;;;;;;10.30;9.30;;;29.20;88.40;;;;;;4970069;28;20484;-66
2021/07/21 09:29:31;;;;;;;14.33;11.60;;;29.20;88.10;;;;;;4971565;28;20428;-66
2021/07/21 09:31:59;;;;;;;11.30;10.27;;;29.40;86.70;;;;;;4972497;28;20669;-66
2021/07/21 09:34:26;;;;;;;11.53;9.50;;;29.30;85.90;;;;;;4985635;28;20208;-65
2021/07/21 09:37:12;;;;;;;13.70;10.67;;;29.50;85.50;;;;;;4989035;28;21001;-66
2021/07/21 09:39:39;;;;;;;13.73;11.43;;;29.90;83.20;;;;;;4975338;28;20513;-67
2021/07/21 09:42:07;;;;;;;11.63;10.60;;;30.00;82.40;;;;;;4972336;28;20450;-67
2021/07/21 09:44:38;;;;;;;12.30;11.10;;;29.90;82.40;;;;;;4972019;28;20514;-67
2021/07/21 09:47:18;;;;;;;11.00;10.10;;;30.30;81.30;;;;;;4970828;28;20839;-67
2021/07/21 09:49:45;;;;;;;12.20;10.50;;;30.50;80.10;;;;;;4990769;28;20426;-66
2021/07/21 09:52:22;;;;;;;12.07;11.07;;;31.10;79.70;;;;;;4991627;28;20426;-66
2021/07/21 09:55:11;;;;;;;11.80;10.70;;;31.70;76.90;;;;;;4991353;28;20434;-67
2021/07/21 09:57:38;;;;;;;11.63;10.53;;;32.20;75.20;;;;;;5004767;23;20880;-63
2021/07/21 10:00:23;;;;;;;12.53;11.47;;;32.50;72.70;;;;;;4981306;28;20436;-63
2021/07/21 10:02:50;;;;;;;12.17;11.10;;;33.00;70.50;;;;;;4980574;28;20792;-63
2021/07/21 10:05:16;;;;;;;11.37;9.67;;;33.30;67.00;;;;;;4988544;28;20463;-63
2021/07/21 10:07:51;;;;;;;13.10;11.73;;;33.50;64.70;;;;;;4980876;28;20973;-65
2021/07/21 10:10:16;;;;;;;10.83;10.03;;;34.20;61.90;;;;;;4983748;28;20183;-64
2021/07/21 10:12:42;;;;;;;11.50;10.50;;;34.50;60.10;;;;;;4991032;28;20828;-64
2021/07/21 10:15:08;;;;;;;11.20;10.17;;;34.50;59.90;;;;;;4990893;28;20254;-62
2021/07/21 10:17:34;;;;;;;11.60;10.50;;;34.70;59.80;;;;;;4983216;28;20183;-60
2021/07/21 10:20:00;;;;;;;11.67;10.60;;;35.30;58.20;;;;;;4990601;28;20427;-62
2021/07/21 10:22:26;;;;;;;11.83;10.77;;;36.10;56.10;;;;;;4990882;28;20183;-62
2021/07/21 10:24:52;;;;;;;11.93;10.93;;;35.80;55.30;;;;;;4975280;28;20223;-62
2021/07/21 10:27:19;;;;;;;12.03;11.13;;;35.70;55.10;;;;;;4987026;28;20451;-61
2021/07/21 10:29:45;;;;;;;10.95;9.85;;;34.70;53.50;;;;;;4989150;28;20428;-63
2021/07/21 10:32:14;;;;;;;12.67;11.47;;;33.90;55.60;;;;;;4983130;28;20180;-63
2021/07/21 10:34:42;;;;;;;11.40;10.30;;;33.60;55.80;;;;;;4987144;28;20187;-63
2021/07/21 10:37:08;;;;;;;11.07;10.17;;;35.10;55.00;;;;;;4986009;28;20443;-63
2021/07/21 10:39:36;;;;;;;10.57;9.53;;;36.50;52.40;;;;;;4970300;28;20537;-64
2021/07/21 10:42:10;;;;;;;11.50;10.30;;;36.90;52.40;;;;;;4971097;28;20849;-64
2021/07/21 10:44:36;;;;;;;11.27;10.37;;;38.20;51.10;;;;;;4971030;28;20440;-63
2021/07/21 10:47:24;;;;;;;10.90;9.93;;;39.10;48.90;;;;;;4969365;28;20459;-63
2021/07/21 10:49:55;;;;;;;11.40;10.40;;;40.00;46.80;;;;;;4989683;28;20426;-64
2021/07/21 10:55:18;;;;;;;11.60;10.40;;;41.80;42.10;;;;;;4990385;28;20426;-63
2021/07/21 11:00:29;;;;;;;11.17;10.17;;;41.80;40.70;;;;;;4990085;28;20430;-62
2021/07/21 11:03:16;;;;;;;11.23;10.27;;;41.30;42.00;;;;;;4978376;28;20471;-62
2021/07/21 11:05:50;;;;;;;12.03;10.83;;;41.30;41.20;;;;;;4970652;28;20944;-63
2021/07/21 11:08:18;;;;;;;11.00;10.13;;;42.10;40.70;;;;;;4977877;28;20446;-63
2021/07/21 11:10:45;;;;;;;11.03;10.23;;;42.70;39.90;;;;;;4989700;28;21750;-63
2021/07/21 11:13:30;;;;;;;12.57;11.37;;;42.10;39.00;;;;;;4990258;28;20813;-64
2021/07/21 11:15:58;;;;;;;13.57;12.30;;;41.50;40.10;;;;;;4989627;28;20492;-62
2021/07/21 11:18:24;;;;;;;10.67;9.87;;;42.60;38.80;;;;;;4985610;28;20524;-63
2021/07/21 11:21:08;;;;;;;12.47;11.57;;;43.50;38.30;;;;;;4990217;28;20522;-62
2021/07/21 11:23:51;;;;;;;13.13;11.83;;;43.40;37.50;;;;;;4983672;28;20180;-63
2021/07/21 11:26:33;;;;;;;10.07;9.43;;;41.90;38.40;;;;;;4971630;28;20455;-63
2021/07/21 11:29:21;;;;;;;11.00;10.20;;;42.50;38.30;;;;;;4983160;28;20451;-64
2021/07/21 11:31:50;;;;;;;10.97;10.00;;;42.50;38.20;;;;;;4989569;28;20933;-63
2021/07/21 11:34:33;;;;;;;11.40;10.60;;;43.00;37.10;;;;;;4976859;28;20430;-63
2021/07/21 11:37:00;;;;;;;11.70;10.80;;;44.10;36.60;;;;;;4968909;28;20419;-63
2021/07/21 11:39:48;;;;;;;10.60;9.90;;;44.60;36.10;;;;;;4969669;28;20815;-63
2021/07/21 11:45:05;;;;;;;13.00;11.80;;;46.10;35.40;;;;;;4970081;28;20496;-64
2021/07/21 11:47:37;;;;;;;12.00;10.90;;;45.80;34.40;;;;;;4975324;28;20434;-63
2021/07/21 11:50:07;;;;;;;11.83;10.80;;;44.20;35.10;;;;;;4986253;28;20442;-63
2021/07/21 11:52:33;;;;;;;10.50;9.73;;;43.40;35.70;;;;;;4989425;28;20410;-63
2021/07/21 11:54:58;;;;;;;11.57;10.67;;;42.90;35.80;;;;;;4989284;28;20792;-63
2021/07/21 11:57:26;;;;;;;11.90;10.97;;;40.70;36.40;;;;;;4981158;28;20180;-63
2021/07/21 11:59:55;;;;;;;12.13;11.03;;;38.80;38.60;;;;;;4969359;28;20194;-63
2021/07/21 12:02:21;;;;;;;12.40;11.47;;;38.60;39.60;;;;;;4972214;28;20995;-63
2021/07/21 12:04:51;;;;;;;11.97;10.87;;;40.40;38.20;;;;;;4969361;28;20557;-63
2021/07/21 12:07:30;;;;;;;11.83;10.73;;;41.90;36.80;;;;;;4968462;28;20438;-63
2021/07/21 12:09:55;;;;;;;13.57;12.20;;;42.10;37.20;;;;;;4969503;28;20478;-63
2021/07/21 12:12:26;;;;;;;11.83;10.80;;;41.90;36.90;;;;;;4969679;28;20902;-63
2021/07/21 12:14:59;;;;;;;13.47;12.30;;;43.80;36.40;;;;;;4969674;28;20215;-64
2021/07/21 12:17:26;;;;;;;12.97;11.87;;;44.90;35.20;;;;;;4968037;28;21053;-63
2021/07/21 12:20:00;;;;;;;12.20;11.20;;;46.20;33.90;;;;;;4974549;28;20427;-63
2021/07/21 12:22:30;;;;;;;11.77;10.87;;;46.20;33.70;;;;;;4982278;28;20438;-63
2021/07/21 12:24:59;;;;;;;12.80;11.80;;;47.20;33.30;;;;;;4981366;28;20454;-63
2021/07/21 12:27:36;;;;;;;11.97;11.17;;;47.70;33.40;;;;;;4982002;28;20427;-62
2021/07/21 12:30:10;;;;;;;12.53;11.53;;;47.80;32.50;;;;;;4969034;28;20427;-63
2021/07/21 12:32:37;;;;;;;12.70;11.50;;;47.20;32.70;;;;;;4969629;28;20593;-64
2021/07/21 12:35:06;;;;;;;11.40;10.67;;;47.80;32.60;;;;;;4969647;28;20474;-63
2021/07/21 12:37:37;;;;;;;14.77;13.37;;;47.20;32.40;;;;;;4970894;28;20482;-62
2021/07/21 12:40:08;;;;;;;14.17;11.57;;;47.40;32.60;;;;;;4987628;28;20448;-63
2021/07/21 12:42:35;;;;;;;13.57;12.30;;;47.40;32.10;;;;;;4989213;28;20940;-63
2021/07/21 12:45:05;;;;;;;13.07;11.97;;;47.40;31.80;;;;;;4988938;28;20459;-63
2021/07/21 12:47:33;;;;;;;11.13;10.33;;;46.60;32.30;;;;;;4975261;28;20423;-63
2021/07/21 12:50:02;;;;;;;11.70;10.43;;;46.60;32.50;;;;;;4977191;28;20439;-63